Flight Track Log - Related Links

Times and Time Zones

All times are in EDT time to prevent confusion due to time zone crossing. See the DAL6234 flight status page for this flight to view local times or setup timezone preferences in your user account.

Time Position Orientation Groundspeed Altitude Reporting Facility
EDT Latitude Longitude Course Direction KTS MPH feet Rate Location/Type
Sat 05:49:29 PM 43.1089 -76.0950 98° East 136 157 1,400  Level Boston Center
Sat 05:50:11 PM 43.1039 -76.0492 98° East 181 208 3,700 2,919 Climbing Boston Center
Sat 05:51:20 PM 43.0622 -75.9814 130° Southeast 217 250 6,800 3,116 Climbing Boston Center
Sat 05:52:20 PM 43.0103 -75.9158 137° Southeast 239 275 10,400 2,455 Climbing Boston Center
Sat 05:53:32 PM 42.9439 -75.8356 138° Southeast 278 320 12,200 2,227 Climbing Boston Center
Sat 05:54:32 PM 42.8533 -75.7228 138° Southeast 340 391 15,300 2,850 Climbing Boston Center
Sat 05:55:32 PM 42.7767 -75.6253 137° Southeast 366 421 17,900 2,700 Climbing Boston Center
Sat 05:56:32 PM 42.6961 -75.5253 138° Southeast 379 436 20,700 1,550 Climbing Boston Center
Sat 05:57:32 PM 42.6133 -75.4250 138° Southeast 385 443 21,000 150 Climbing Boston Center
Sat 05:58:32 PM 42.5267 -75.3139 137° Southeast 406 467 21,000  Level Boston Center
Sat 05:59:32 PM 42.4503 -75.2006 132° Southeast 419 482 21,000  Level Boston Center
Sat 06:00:32 PM 42.4014 -75.0633 116° Southeast 407 468 21,000 -45 Level Boston Center
Sat 06:01:44 PM 42.3542 -74.9350 116° Southeast 394 453 20,900 -500 Descending Boston Center
Sat 06:02:44 PM 42.2969 -74.7839 117° Southeast 382 440 19,900 -950 Descending Boston Center
Sat 06:03:44 PM 42.2494 -74.6586 117° Southeast 376 433 19,000 -950 Descending Boston Center
Sat 06:04:44 PM 42.2061 -74.5339 115° Southeast 371 427 18,000 -500 Descending Boston Center
Sat 06:05:44 PM 42.1583 -74.4061 117° Southeast 371 427 18,000  Level Boston Center
Sat 06:06:44 PM 42.1044 -74.2647 117° Southeast 378 435 18,000  Level Boston Center
Sat 06:07:44 PM 42.0286 -74.1842 142° Southeast 378 435 18,000  Level Boston Center
Sat 06:08:44 PM 41.9189 -74.1225 157° South 384 442 18,000 -900 Level Boston Center
Sat 06:09:44 PM 41.8197 -74.0642 156° South 389 448 16,200 -1,800 Descending Boston Center
Sat 06:10:44 PM 41.7350 -74.0175 158° South 383 441 14,400 -1,767 Descending Boston Center
Sat 06:12:10 PM 41.6000 -73.9500 159° South 314 361 11,900 -1,737 Descending New York TRACON
Sat 06:13:16 PM 41.5167 -73.9000 156° South 281 323 10,000 -1,762 Descending New York TRACON
Sat 06:14:16 PM 41.4500 -73.8667 159° South 268 308 8,200 -1,550 Descending New York TRACON
Sat 06:15:16 PM 41.3833 -73.8167 151° Southeast 279 321 6,900 -1,400 Descending New York TRACON
Sat 06:16:16 PM 41.3167 -73.7667 151° Southeast 276 318 5,400 -1,450 Descending New York TRACON
Sat 06:17:16 PM 41.2500 -73.7167 151° Southeast 268 308 4,000 -700 Descending New York TRACON
Sat 06:18:16 PM 41.1833 -73.6833 159° South 265 305 4,000  Level New York TRACON
Sat 06:19:16 PM 41.1167 -73.6667 169° South 268 308 4,000  Level New York TRACON
Sat 06:20:16 PM 41.0333 -73.6667 180° South 276 318 4,000 -286 Level New York TRACON
Sat 06:21:22 PM 40.9667 -73.7167 210° Southwest 282 325 3,400 -550 Descending New York TRACON
Sat 06:22:16 PM 40.9167 -73.7667 217° Southwest 241 277 2,900 -750 Descending New York TRACON
Sat 06:23:22 PM 40.8667 -73.8000 207° Southwest 177 204 1,900 -850 Descending New York TRACON
Sat 06:24:16 PM 40.8333 -73.8333 217° Southwest 123 142 1,200 -700 Descending New York TRACON
Sat 06:25:22 PM 40.8000 -73.8500 201° Southwest 130 150 500 -636 Descending New York TRACON
Sat 06:27:00 PM 40.7667 -73.8667 180° South  Level FlightAware Approximate
Sat 06:34:00 PM 40.7772 -73.8726 180° South  Level Estimated

Login

Don't have an account? Register now (free) for customized features, flight alerts, and more!